sensor_id;sensor_type;location;lat;lon;timestamp;temperature;humidity
18297;DHT22;18066;52.106;5.534;2022-12-24T00:02:20;10.70;99.90
18297;DHT22;18066;52.106;5.534;2022-12-24T00:04:47;10.50;99.90
18297;DHT22;18066;52.106;5.534;2022-12-24T00:07:14;10.50;99.90
18297;DHT22;18066;52.106;5.534;2022-12-24T00:09:41;10.60;99.90
18297;DHT22;18066;52.106;5.534;2022-12-24T00:12:09;10.50;99.90
18297;DHT22;18066;52.106;5.534;2022-12-24T00:14:36;10.30;99.90
18297;DHT22;18066;52.106;5.534;2022-12-24T00:17:03;10.50;99.90
18297;DHT22;18066;52.106;5.534;2022-12-24T00:19:30;10.50;99.90
18297;DHT22;18066;52.106;5.534;2022-12-24T00:21:57;10.50;99.90
18297;DHT22;18066;52.106;5.534;2022-12-24T00:24:23;10.50;99.90
18297;DHT22;18066;52.106;5.534;2022-12-24T00:26:50;10.50;99.90
18297;DHT22;18066;52.106;5.534;2022-12-24T00:29:18;10.50;99.90
18297;DHT22;18066;52.106;5.534;2022-12-24T00:31:45;10.50;99.90
18297;DHT22;18066;52.106;5.534;2022-12-24T00:34:12;10.50;99.90
18297;DHT22;18066;52.106;5.534;2022-12-24T00:36:39;10.50;99.90
18297;DHT22;18066;52.106;5.534;2022-12-24T00:39:06;10.40;99.90
18297;DHT22;18066;52.106;5.534;2022-12-24T00:41:32;10.40;99.90
18297;DHT22;18066;52.106;5.534;2022-12-24T00:44:01;10.40;99.90
18297;DHT22;18066;52.106;5.534;2022-12-24T00:46:33;10.40;99.90
18297;DHT22;18066;52.106;5.534;2022-12-24T00:49:00;10.40;99.90
18297;DHT22;18066;52.106;5.534;2022-12-24T00:51:27;10.40;99.90
18297;DHT22;18066;52.106;5.534;2022-12-24T00:53:54;10.30;99.90
18297;DHT22;18066;52.106;5.534;2022-12-24T00:56:21;10.30;99.90
18297;DHT22;18066;52.106;5.534;2022-12-24T00:58:48;10.30;99.90
18297;DHT22;18066;52.106;5.534;2022-12-24T01:01:16;10.30;99.90
18297;DHT22;18066;52.106;5.534;2022-12-24T01:03:44;10.20;99.90
18297;DHT22;18066;52.106;5.534;2022-12-24T01:06:12;10.30;99.90
18297;DHT22;18066;52.106;5.534;2022-12-24T01:08:39;10.20;99.90
18297;DHT22;18066;52.106;5.534;2022-12-24T01:11:07;10.10;99.90
18297;DHT22;18066;52.106;5.534;2022-12-24T01:13:35;10.20;99.90
18297;DHT22;18066;52.106;5.534;2022-12-24T01:16:02;10.10;99.90
18297;DHT22;18066;52.106;5.534;2022-12-24T01:18:29;10.10;99.90
18297;DHT22;18066;52.106;5.534;2022-12-24T01:20:59;10.10;99.90
18297;DHT22;18066;52.106;5.534;2022-12-24T01:23:27;10.00;99.90
18297;DHT22;18066;52.106;5.534;2022-12-24T01:25:54;9.90;99.90
18297;DHT22;18066;52.106;5.534;2022-12-24T01:28:21;9.90;99.90
18297;DHT22;18066;52.106;5.534;2022-12-24T01:30:48;9.80;99.90
18297;DHT22;18066;52.106;5.534;2022-12-24T01:33:15;10.00;99.90
18297;DHT22;18066;52.106;5.534;2022-12-24T01:35:42;9.90;99.90
18297;DHT22;18066;52.106;5.534;2022-12-24T01:38:11;9.90;99.90
18297;DHT22;18066;52.106;5.534;2022-12-24T01:40:38;9.80;99.90
18297;DHT22;18066;52.106;5.534;2022-12-24T01:43:24;9.80;99.90
18297;DHT22;18066;52.106;5.534;2022-12-24T01:45:53;9.80;99.90
18297;DHT22;18066;52.106;5.534;2022-12-24T01:48:36;9.70;99.90
18297;DHT22;18066;52.106;5.534;2022-12-24T01:51:11;9.60;99.90
18297;DHT22;18066;52.106;5.534;2022-12-24T01:53:45;9.40;99.90
18297;DHT22;18066;52.106;5.534;2022-12-24T01:56:14;9.50;99.90
18297;DHT22;18066;52.106;5.534;2022-12-24T01:58:44;9.40;99.90
18297;DHT22;18066;52.106;5.534;2022-12-24T02:01:11;9.40;99.90
18297;DHT22;18066;52.106;5.534;2022-12-24T02:03:38;9.40;99.90
18297;DHT22;18066;52.106;5.534;2022-12-24T02:06:07;9.40;99.90
18297;DHT22;18066;52.106;5.534;2022-12-24T02:08:36;9.40;99.90
18297;DHT22;18066;52.106;5.534;2022-12-24T02:11:11;9.30;99.90
18297;DHT22;18066;52.106;5.534;2022-12-24T02:13:39;9.30;99.90
18297;DHT22;18066;52.106;5.534;2022-12-24T02:16:13;9.30;99.90
18297;DHT22;18066;52.106;5.534;2022-12-24T02:18:54;9.20;99.90
18297;DHT22;18066;52.106;5.534;2022-12-24T02:21:37;9.20;99.90
18297;DHT22;18066;52.106;5.534;2022-12-24T02:27:22;9.20;99.90
18297;DHT22;18066;52.106;5.534;2022-12-24T02:30:03;9.10;99.90
18297;DHT22;18066;52.106;5.534;2022-12-24T02:32:35;9.20;99.90
18297;DHT22;18066;52.106;5.534;2022-12-24T02:35:10;9.00;99.90
18297;DHT22;18066;52.106;5.534;2022-12-24T02:37:41;9.00;99.90
18297;DHT22;18066;52.106;5.534;2022-12-24T02:40:12;9.10;99.90
18297;DHT22;18066;52.106;5.534;2022-12-24T02:42:41;9.00;99.90
18297;DHT22;18066;52.106;5.534;2022-12-24T02:45:13;9.20;99.90
18297;DHT22;18066;52.106;5.534;2022-12-24T02:47:43;9.00;99.90
18297;DHT22;18066;52.106;5.534;2022-12-24T02:50:13;9.00;99.90
18297;DHT22;18066;52.106;5.534;2022-12-24T02:52:41;9.00;99.90
18297;DHT22;18066;52.106;5.534;2022-12-24T02:55:12;9.00;99.90
18297;DHT22;18066;52.106;5.534;2022-12-24T02:58:00;9.00;99.90
18297;DHT22;18066;52.106;5.534;2022-12-24T03:00:41;9.00;99.90
18297;DHT22;18066;52.106;5.534;2022-12-24T03:03:25;9.10;99.90
18297;DHT22;18066;52.106;5.534;2022-12-24T03:06:00;9.10;99.90
18297;DHT22;18066;52.106;5.534;2022-12-24T03:08:37;9.00;99.90
18297;DHT22;18066;52.106;5.534;2022-12-24T03:11:09;8.80;99.90
18297;DHT22;18066;52.106;5.534;2022-12-24T03:13:36;8.90;99.90
18297;DHT22;18066;52.106;5.534;2022-12-24T03:16:06;8.70;99.90
18297;DHT22;18066;52.106;5.534;2022-12-24T03:18:37;8.90;99.90
18297;DHT22;18066;52.106;5.534;2022-12-24T03:21:09;8.80;99.90
18297;DHT22;18066;52.106;5.534;2022-12-24T03:23:36;9.10;99.90
18297;DHT22;18066;52.106;5.534;2022-12-24T03:26:06;8.80;99.90
18297;DHT22;18066;52.106;5.534;2022-12-24T03:28:37;8.80;99.90
18297;DHT22;18066;52.106;5.534;2022-12-24T03:31:07;8.80;99.90
18297;DHT22;18066;52.106;5.534;2022-12-24T03:33:34;8.90;99.90
18297;DHT22;18066;52.106;5.534;2022-12-24T03:36:02;8.90;99.90
18297;DHT22;18066;52.106;5.534;2022-12-24T03:38:29;9.10;99.90
18297;DHT22;18066;52.106;5.534;2022-12-24T03:40:56;9.00;99.90
18297;DHT22;18066;52.106;5.534;2022-12-24T03:43:23;9.10;99.90
18297;DHT22;18066;52.106;5.534;2022-12-24T03:45:50;9.10;99.90
18297;DHT22;18066;52.106;5.534;2022-12-24T03:48:18;9.10;99.90
18297;DHT22;18066;52.106;5.534;2022-12-24T03:50:45;9.30;99.90
18297;DHT22;18066;52.106;5.534;2022-12-24T03:53:11;9.30;99.90
18297;DHT22;18066;52.106;5.534;2022-12-24T03:55:38;9.20;99.90
18297;DHT22;18066;52.106;5.534;2022-12-24T03:58:06;9.40;99.90
18297;DHT22;18066;52.106;5.534;2022-12-24T04:00:33;9.20;99.90
18297;DHT22;18066;52.106;5.534;2022-12-24T04:02:59;9.60;99.90
18297;DHT22;18066;52.106;5.534;2022-12-24T04:05:28;9.50;99.90
18297;DHT22;18066;52.106;5.534;2022-12-24T04:07:54;9.60;99.90
18297;DHT22;18066;52.106;5.534;2022-12-24T04:10:21;9.50;99.90
18297;DHT22;18066;52.106;5.534;2022-12-24T04:12:48;9.50;99.90
18297;DHT22;18066;52.106;5.534;2022-12-24T04:15:15;9.50;99.90
18297;DHT22;18066;52.106;5.534;2022-12-24T04:17:42;9.60;99.90
18297;DHT22;18066;52.106;5.534;2022-12-24T04:20:10;9.60;99.90
18297;DHT22;18066;52.106;5.534;2022-12-24T04:22:38;9.60;99.90
18297;DHT22;18066;52.106;5.534;2022-12-24T04:25:07;9.70;99.90
18297;DHT22;18066;52.106;5.534;2022-12-24T04:27:34;9.60;99.90
18297;DHT22;18066;52.106;5.534;2022-12-24T04:30:01;9.70;99.90
18297;DHT22;18066;52.106;5.534;2022-12-24T04:32:28;9.60;99.90
18297;DHT22;18066;52.106;5.534;2022-12-24T04:34:55;9.70;99.90
18297;DHT22;18066;52.106;5.534;2022-12-24T04:37:22;9.70;99.90
18297;DHT22;18066;52.106;5.534;2022-12-24T04:39:50;9.70;99.90
18297;DHT22;18066;52.106;5.534;2022-12-24T04:42:17;9.80;99.90
18297;DHT22;18066;52.106;5.534;2022-12-24T04:44:43;10.00;99.90
18297;DHT22;18066;52.106;5.534;2022-12-24T04:47:10;9.80;99.90
18297;DHT22;18066;52.106;5.534;2022-12-24T04:49:37;9.80;99.90
18297;DHT22;18066;52.106;5.534;2022-12-24T04:52:04;9.80;99.90
18297;DHT22;18066;52.106;5.534;2022-12-24T04:54:31;9.80;99.90
18297;DHT22;18066;52.106;5.534;2022-12-24T04:56:59;9.90;99.90
18297;DHT22;18066;52.106;5.534;2022-12-24T04:59:26;9.80;99.90
18297;DHT22;18066;52.106;5.534;2022-12-24T05:01:53;9.90;99.90
18297;DHT22;18066;52.106;5.534;2022-12-24T05:04:20;9.90;99.90
18297;DHT22;18066;52.106;5.534;2022-12-24T05:06:46;9.90;99.90
18297;DHT22;18066;52.106;5.534;2022-12-24T05:09:13;9.90;99.90
18297;DHT22;18066;52.106;5.534;2022-12-24T05:11:40;9.80;99.90
18297;DHT22;18066;52.106;5.534;2022-12-24T05:14:08;9.80;99.90
18297;DHT22;18066;52.106;5.534;2022-12-24T05:16:35;10.20;99.90
18297;DHT22;18066;52.106;5.534;2022-12-24T05:19:03;9.80;99.90
18297;DHT22;18066;52.106;5.534;2022-12-24T05:21:29;9.80;99.90
18297;DHT22;18066;52.106;5.534;2022-12-24T05:23:56;9.90;99.90
18297;DHT22;18066;52.106;5.534;2022-12-24T05:26:42;9.90;99.90
18297;DHT22;18066;52.106;5.534;2022-12-24T05:29:11;9.90;99.90
18297;DHT22;18066;52.106;5.534;2022-12-24T05:31:39;10.00;99.90
18297;DHT22;18066;52.106;5.534;2022-12-24T05:34:06;10.10;99.90
18297;DHT22;18066;52.106;5.534;2022-12-24T05:36:33;10.00;99.90
18297;DHT22;18066;52.106;5.534;2022-12-24T05:39:00;10.10;99.90
18297;DHT22;18066;52.106;5.534;2022-12-24T05:41:27;10.00;99.90
18297;DHT22;18066;52.106;5.534;2022-12-24T05:43:54;10.10;99.90
18297;DHT22;18066;52.106;5.534;2022-12-24T05:46:23;9.90;99.90
18297;DHT22;18066;52.106;5.534;2022-12-24T05:48:51;9.90;99.90
18297;DHT22;18066;52.106;5.534;2022-12-24T05:51:19;10.10;99.90
18297;DHT22;18066;52.106;5.534;2022-12-24T05:53:48;10.10;99.90
18297;DHT22;18066;52.106;5.534;2022-12-24T05:56:18;10.10;99.90
18297;DHT22;18066;52.106;5.534;2022-12-24T05:58:45;10.10;99.90
18297;DHT22;18066;52.106;5.534;2022-12-24T06:01:12;10.20;99.90
18297;DHT22;18066;52.106;5.534;2022-12-24T06:03:41;10.10;99.90
18297;DHT22;18066;52.106;5.534;2022-12-24T06:06:09;10.10;99.90
18297;DHT22;18066;52.106;5.534;2022-12-24T06:08:37;10.20;99.90
18297;DHT22;18066;52.106;5.534;2022-12-24T06:11:06;10.20;99.90
18297;DHT22;18066;52.106;5.534;2022-12-24T06:13:34;10.10;99.90
18297;DHT22;18066;52.106;5.534;2022-12-24T06:16:02;10.20;99.90
18297;DHT22;18066;52.106;5.534;2022-12-24T06:18:30;10.20;99.90
18297;DHT22;18066;52.106;5.534;2022-12-24T06:20:59;10.20;99.90
18297;DHT22;18066;52.106;5.534;2022-12-24T06:23:27;10.20;99.90
18297;DHT22;18066;52.106;5.534;2022-12-24T06:25:56;10.20;99.90
18297;DHT22;18066;52.106;5.534;2022-12-24T06:28:25;10.10;99.90
18297;DHT22;18066;52.106;5.534;2022-12-24T06:30:52;10.20;99.90
18297;DHT22;18066;52.106;5.534;2022-12-24T06:33:19;10.20;99.90
18297;DHT22;18066;52.106;5.534;2022-12-24T06:35:46;10.30;99.90
18297;DHT22;18066;52.106;5.534;2022-12-24T06:38:14;10.30;99.90
18297;DHT22;18066;52.106;5.534;2022-12-24T06:40:43;10.30;99.90
18297;DHT22;18066;52.106;5.534;2022-12-24T06:43:11;10.20;99.90
18297;DHT22;18066;52.106;5.534;2022-12-24T06:45:38;10.30;99.90
18297;DHT22;18066;52.106;5.534;2022-12-24T06:48:05;10.30;99.90
18297;DHT22;18066;52.106;5.534;2022-12-24T06:50:33;10.30;99.90
18297;DHT22;18066;52.106;5.534;2022-12-24T06:53:00;10.30;99.90
18297;DHT22;18066;52.106;5.534;2022-12-24T06:55:28;10.30;99.90
18297;DHT22;18066;52.106;5.534;2022-12-24T06:57:55;10.30;99.90
18297;DHT22;18066;52.106;5.534;2022-12-24T07:00:22;10.30;99.90
18297;DHT22;18066;52.106;5.534;2022-12-24T07:02:48;10.30;99.90
18297;DHT22;18066;52.106;5.534;2022-12-24T07:05:15;10.30;99.90
18297;DHT22;18066;52.106;5.534;2022-12-24T07:07:44;10.30;99.90
18297;DHT22;18066;52.106;5.534;2022-12-24T07:10:12;10.30;99.90
18297;DHT22;18066;52.106;5.534;2022-12-24T07:12:41;10.30;99.90
18297;DHT22;18066;52.106;5.534;2022-12-24T07:15:10;10.30;99.90
18297;DHT22;18066;52.106;5.534;2022-12-24T07:17:37;10.30;99.90
18297;DHT22;18066;52.106;5.534;2022-12-24T07:20:06;10.30;99.90
18297;DHT22;18066;52.106;5.534;2022-12-24T07:22:34;10.20;99.90
18297;DHT22;18066;52.106;5.534;2022-12-24T07:25:00;10.20;99.90
18297;DHT22;18066;52.106;5.534;2022-12-24T07:27:27;10.20;99.90
18297;DHT22;18066;52.106;5.534;2022-12-24T07:29:55;10.20;99.90
18297;DHT22;18066;52.106;5.534;2022-12-24T07:32:22;10.20;99.90
18297;DHT22;18066;52.106;5.534;2022-12-24T07:34:49;10.20;99.90
18297;DHT22;18066;52.106;5.534;2022-12-24T07:37:16;10.10;99.90
18297;DHT22;18066;52.106;5.534;2022-12-24T07:39:43;10.70;99.90
18297;DHT22;18066;52.106;5.534;2022-12-24T07:42:09;10.30;99.90
18297;DHT22;18066;52.106;5.534;2022-12-24T07:44:36;10.40;99.90
18297;DHT22;18066;52.106;5.534;2022-12-24T07:47:04;10.30;99.90
18297;DHT22;18066;52.106;5.534;2022-12-24T07:49:31;10.20;99.90
18297;DHT22;18066;52.106;5.534;2022-12-24T07:51:59;10.20;99.90
18297;DHT22;18066;52.106;5.534;2022-12-24T07:54:26;10.30;99.90
18297;DHT22;18066;52.106;5.534;2022-12-24T07:56:52;10.20;99.90
18297;DHT22;18066;52.106;5.534;2022-12-24T07:59:20;10.20;99.90
18297;DHT22;18066;52.106;5.534;2022-12-24T08:01:47;10.20;99.90
18297;DHT22;18066;52.106;5.534;2022-12-24T08:04:15;10.20;99.90
18297;DHT22;18066;52.106;5.534;2022-12-24T08:06:42;10.10;99.90
18297;DHT22;18066;52.106;5.534;2022-12-24T08:09:09;10.10;99.90
18297;DHT22;18066;52.106;5.534;2022-12-24T08:11:36;10.20;99.90
18297;DHT22;18066;52.106;5.534;2022-12-24T08:14:02;10.20;99.90
18297;DHT22;18066;52.106;5.534;2022-12-24T08:16:29;10.20;99.90
18297;DHT22;18066;52.106;5.534;2022-12-24T08:18:56;10.10;99.90
18297;DHT22;18066;52.106;5.534;2022-12-24T08:21:24;10.70;99.90
18297;DHT22;18066;52.106;5.534;2022-12-24T08:23:51;10.30;99.90
18297;DHT22;18066;52.106;5.534;2022-12-24T08:26:18;10.20;99.90
18297;DHT22;18066;52.106;5.534;2022-12-24T08:28:45;10.20;99.90
18297;DHT22;18066;52.106;5.534;2022-12-24T08:31:11;10.20;99.90
18297;DHT22;18066;52.106;5.534;2022-12-24T08:33:40;10.20;99.90
18297;DHT22;18066;52.106;5.534;2022-12-24T08:36:07;10.20;99.90
18297;DHT22;18066;52.106;5.534;2022-12-24T08:38:36;10.30;99.90
18297;DHT22;18066;52.106;5.534;2022-12-24T08:41:03;10.20;99.90
18297;DHT22;18066;52.106;5.534;2022-12-24T08:43:29;10.50;99.90
18297;DHT22;18066;52.106;5.534;2022-12-24T08:46:01;10.30;99.90
18297;DHT22;18066;52.106;5.534;2022-12-24T08:48:28;10.30;99.90
18297;DHT22;18066;52.106;5.534;2022-12-24T08:50:54;10.30;99.90
18297;DHT22;18066;52.106;5.534;2022-12-24T08:53:21;10.40;99.90
18297;DHT22;18066;52.106;5.534;2022-12-24T08:55:49;10.40;99.90
18297;DHT22;18066;52.106;5.534;2022-12-24T08:58:16;10.50;99.90
18297;DHT22;18066;52.106;5.534;2022-12-24T09:00:43;10.40;99.90
18297;DHT22;18066;52.106;5.534;2022-12-24T09:03:13;10.40;99.90
18297;DHT22;18066;52.106;5.534;2022-12-24T09:05:41;10.50;99.90
18297;DHT22;18066;52.106;5.534;2022-12-24T09:08:07;10.50;99.90
18297;DHT22;18066;52.106;5.534;2022-12-24T09:10:34;10.50;99.90
18297;DHT22;18066;52.106;5.534;2022-12-24T09:13:02;10.50;99.90
18297;DHT22;18066;52.106;5.534;2022-12-24T09:15:29;10.80;99.90
18297;DHT22;18066;52.106;5.534;2022-12-24T09:17:56;10.50;99.90
18297;DHT22;18066;52.106;5.534;2022-12-24T09:20:23;10.50;99.90
18297;DHT22;18066;52.106;5.534;2022-12-24T09:22:50;10.50;99.90
18297;DHT22;18066;52.106;5.534;2022-12-24T09:25:17;10.50;99.90
18297;DHT22;18066;52.106;5.534;2022-12-24T09:27:43;10.50;99.90
18297;DHT22;18066;52.106;5.534;2022-12-24T09:30:13;10.60;99.90
18297;DHT22;18066;52.106;5.534;2022-12-24T09:32:40;10.50;99.90
18297;DHT22;18066;52.106;5.534;2022-12-24T09:35:07;10.60;99.90
18297;DHT22;18066;52.106;5.534;2022-12-24T09:37:35;10.60;99.90
18297;DHT22;18066;52.106;5.534;2022-12-24T09:40:03;10.60;99.90
18297;DHT22;18066;52.106;5.534;2022-12-24T09:42:39;10.60;99.90
18297;DHT22;18066;52.106;5.534;2022-12-24T09:45:14;10.60;99.90
18297;DHT22;18066;52.106;5.534;2022-12-24T09:47:45;10.70;99.90
18297;DHT22;18066;52.106;5.534;2022-12-24T09:50:24;10.70;99.90
18297;DHT22;18066;52.106;5.534;2022-12-24T09:52:53;10.70;99.90
18297;DHT22;18066;52.106;5.534;2022-12-24T09:55:25;10.60;99.90
18297;DHT22;18066;52.106;5.534;2022-12-24T09:57:53;10.70;99.90
18297;DHT22;18066;52.106;5.534;2022-12-24T10:00:26;10.60;99.90
18297;DHT22;18066;52.106;5.534;2022-12-24T10:02:53;10.60;99.90
18297;DHT22;18066;52.106;5.534;2022-12-24T10:05:28;10.60;99.90
18297;DHT22;18066;52.106;5.534;2022-12-24T10:08:05;10.60;99.90
18297;DHT22;18066;52.106;5.534;2022-12-24T10:10:41;10.50;99.90
18297;DHT22;18066;52.106;5.534;2022-12-24T10:13:17;10.60;99.90
18297;DHT22;18066;52.106;5.534;2022-12-24T10:15:55;10.50;99.90
18297;DHT22;18066;52.106;5.534;2022-12-24T10:18:34;10.50;99.90
18297;DHT22;18066;52.106;5.534;2022-12-24T10:21:09;10.60;99.90
18297;DHT22;18066;52.106;5.534;2022-12-24T10:23:42;10.70;99.90
18297;DHT22;18066;52.106;5.534;2022-12-24T10:26:15;10.80;99.90
18297;DHT22;18066;52.106;5.534;2022-12-24T10:28:48;10.80;99.90
18297;DHT22;18066;52.106;5.534;2022-12-24T10:31:22;10.80;99.90
18297;DHT22;18066;52.106;5.534;2022-12-24T10:33:54;10.90;99.90
18297;DHT22;18066;52.106;5.534;2022-12-24T10:36:26;10.90;99.90
18297;DHT22;18066;52.106;5.534;2022-12-24T10:38:53;10.90;99.90
18297;DHT22;18066;52.106;5.534;2022-12-24T10:41:21;10.90;99.90
18297;DHT22;18066;52.106;5.534;2022-12-24T10:43:48;10.80;99.90
18297;DHT22;18066;52.106;5.534;2022-12-24T10:46:20;10.80;99.90
18297;DHT22;18066;52.106;5.534;2022-12-24T10:48:51;10.90;99.90
18297;DHT22;18066;52.106;5.534;2022-12-24T10:51:22;11.00;99.90
18297;DHT22;18066;52.106;5.534;2022-12-24T10:53:55;10.90;99.90
18297;DHT22;18066;52.106;5.534;2022-12-24T10:56:22;10.90;99.90
18297;DHT22;18066;52.106;5.534;2022-12-24T10:58:51;11.00;99.90
18297;DHT22;18066;52.106;5.534;2022-12-24T11:01:40;11.00;99.90
18297;DHT22;18066;52.106;5.534;2022-12-24T11:04:14;11.00;99.90
18297;DHT22;18066;52.106;5.534;2022-12-24T11:06:51;11.00;99.90
18297;DHT22;18066;52.106;5.534;2022-12-24T11:09:21;11.00;99.90
18297;DHT22;18066;52.106;5.534;2022-12-24T11:11:48;11.00;99.90
18297;DHT22;18066;52.106;5.534;2022-12-24T11:14:17;11.00;99.90
18297;DHT22;18066;52.106;5.534;2022-12-24T11:16:51;11.00;99.90
18297;DHT22;18066;52.106;5.534;2022-12-24T11:19:25;11.00;99.90
18297;DHT22;18066;52.106;5.534;2022-12-24T11:22:02;10.90;99.90
18297;DHT22;18066;52.106;5.534;2022-12-24T11:24:32;10.90;99.90
18297;DHT22;18066;52.106;5.534;2022-12-24T11:27:21;10.90;99.90
18297;DHT22;18066;52.106;5.534;2022-12-24T11:29:48;10.90;99.90
18297;DHT22;18066;52.106;5.534;2022-12-24T11:32:18;10.90;99.90
18297;DHT22;18066;52.106;5.534;2022-12-24T11:34:46;10.90;99.90
18297;DHT22;18066;52.106;5.534;2022-12-24T11:37:15;10.90;99.90
18297;DHT22;18066;52.106;5.534;2022-12-24T11:39:46;10.80;99.90
18297;DHT22;18066;52.106;5.534;2022-12-24T11:42:24;10.90;99.90
18297;DHT22;18066;52.106;5.534;2022-12-24T11:44:54;10.90;99.90
18297;DHT22;18066;52.106;5.534;2022-12-24T11:47:33;10.80;99.90
18297;DHT22;18066;52.106;5.534;2022-12-24T11:50:26;10.90;99.90
18297;DHT22;18066;52.106;5.534;2022-12-24T11:52:58;10.90;99.90
18297;DHT22;18066;52.106;5.534;2022-12-24T11:55:35;10.90;99.90
18297;DHT22;18066;52.106;5.534;2022-12-24T11:58:11;10.90;99.90
18297;DHT22;18066;52.106;5.534;2022-12-24T12:00:40;11.00;99.90
18297;DHT22;18066;52.106;5.534;2022-12-24T12:03:22;11.00;99.90
18297;DHT22;18066;52.106;5.534;2022-12-24T12:05:51;11.00;99.90
18297;DHT22;18066;52.106;5.534;2022-12-24T12:08:20;10.80;99.90
18297;DHT22;18066;52.106;5.534;2022-12-24T12:10:48;11.10;99.90
18297;DHT22;18066;52.106;5.534;2022-12-24T12:13:21;11.10;99.90
18297;DHT22;18066;52.106;5.534;2022-12-24T12:15:54;11.10;99.90
18297;DHT22;18066;52.106;5.534;2022-12-24T12:18:31;11.10;99.90
18297;DHT22;18066;52.106;5.534;2022-12-24T12:21:02;11.20;99.90
18297;DHT22;18066;52.106;5.534;2022-12-24T12:23:33;11.20;99.90
18297;DHT22;18066;52.106;5.534;2022-12-24T12:26:05;11.30;99.90
18297;DHT22;18066;52.106;5.534;2022-12-24T12:28:36;11.30;99.90
18297;DHT22;18066;52.106;5.534;2022-12-24T12:31:10;11.20;99.90
18297;DHT22;18066;52.106;5.534;2022-12-24T12:33:43;11.20;99.90
18297;DHT22;18066;52.106;5.534;2022-12-24T12:36:16;11.10;99.90
18297;DHT22;18066;52.106;5.534;2022-12-24T12:38:44;11.10;99.90
18297;DHT22;18066;52.106;5.534;2022-12-24T12:41:26;11.00;99.90
18297;DHT22;18066;52.106;5.534;2022-12-24T12:44:24;11.10;99.90
18297;DHT22;18066;52.106;5.534;2022-12-24T12:47:07;11.20;99.90
18297;DHT22;18066;52.106;5.534;2022-12-24T12:49:45;11.10;99.90
18297;DHT22;18066;52.106;5.534;2022-12-24T12:52:20;11.10;99.90
18297;DHT22;18066;52.106;5.534;2022-12-24T12:55:01;11.20;99.90
18297;DHT22;18066;52.106;5.534;2022-12-24T12:57:33;11.30;99.90
18297;DHT22;18066;52.106;5.534;2022-12-24T13:00:04;11.40;99.90
18297;DHT22;18066;52.106;5.534;2022-12-24T13:02:50;11.40;99.90
18297;DHT22;18066;52.106;5.534;2022-12-24T13:05:43;11.30;99.90
18297;DHT22;18066;52.106;5.534;2022-12-24T13:08:37;11.30;99.90
18297;DHT22;18066;52.106;5.534;2022-12-24T13:11:23;11.20;99.90
18297;DHT22;18066;52.106;5.534;2022-12-24T13:14:17;11.10;99.90
18297;DHT22;18066;52.106;5.534;2022-12-24T13:17:06;11.10;99.90
18297;DHT22;18066;52.106;5.534;2022-12-24T13:19:44;11.00;99.90
18297;DHT22;18066;52.106;5.534;2022-12-24T13:22:18;11.00;99.90
18297;DHT22;18066;52.106;5.534;2022-12-24T13:24:47;11.10;99.90
18297;DHT22;18066;52.106;5.534;2022-12-24T13:27:17;11.00;99.90
18297;DHT22;18066;52.106;5.534;2022-12-24T13:29:52;11.00;99.90
18297;DHT22;18066;52.106;5.534;2022-12-24T13:32:47;11.20;99.90
18297;DHT22;18066;52.106;5.534;2022-12-24T13:35:32;11.30;99.90
18297;DHT22;18066;52.106;5.534;2022-12-24T13:38:30;11.40;99.90
18297;DHT22;18066;52.106;5.534;2022-12-24T13:41:48;11.40;99.90
18297;DHT22;18066;52.106;5.534;2022-12-24T13:44:21;11.30;99.90
18297;DHT22;18066;52.106;5.534;2022-12-24T13:46:50;11.30;99.90
18297;DHT22;18066;52.106;5.534;2022-12-24T13:49:26;11.30;99.90
18297;DHT22;18066;52.106;5.534;2022-12-24T13:52:13;11.30;99.90
18297;DHT22;18066;52.106;5.534;2022-12-24T13:54:46;11.30;99.90
18297;DHT22;18066;52.106;5.534;2022-12-24T13:57:39;11.20;99.90
18297;DHT22;18066;52.106;5.534;2022-12-24T14:00:33;11.20;99.90
18297;DHT22;18066;52.106;5.534;2022-12-24T14:03:05;11.10;99.90
18297;DHT22;18066;52.106;5.534;2022-12-24T14:05:44;11.00;99.90
18297;DHT22;18066;52.106;5.534;2022-12-24T14:08:15;11.00;99.90
18297;DHT22;18066;52.106;5.534;2022-12-24T14:10:55;11.00;99.90
18297;DHT22;18066;52.106;5.534;2022-12-24T14:16:41;11.00;99.90
18297;DHT22;18066;52.106;5.534;2022-12-24T14:19:12;11.00;99.90
18297;DHT22;18066;52.106;5.534;2022-12-24T14:21:43;11.10;99.90
18297;DHT22;18066;52.106;5.534;2022-12-24T14:24:14;11.10;99.90
18297;DHT22;18066;52.106;5.534;2022-12-24T14:26:44;11.10;99.90
18297;DHT22;18066;52.106;5.534;2022-12-24T14:29:15;11.10;99.90
18297;DHT22;18066;52.106;5.534;2022-12-24T14:31:51;11.00;99.90
18297;DHT22;18066;52.106;5.534;2022-12-24T14:34:18;11.00;99.90
18297;DHT22;18066;52.106;5.534;2022-12-24T14:36:45;11.00;99.90
18297;DHT22;18066;52.106;5.534;2022-12-24T14:39:21;11.10;99.90
18297;DHT22;18066;52.106;5.534;2022-12-24T14:41:55;11.00;99.90
18297;DHT22;18066;52.106;5.534;2022-12-24T14:44:33;10.90;99.90
18297;DHT22;18066;52.106;5.534;2022-12-24T14:47:11;11.00;99.90
18297;DHT22;18066;52.106;5.534;2022-12-24T14:49:53;11.00;99.90
18297;DHT22;18066;52.106;5.534;2022-12-24T14:52:28;10.90;99.90
18297;DHT22;18066;52.106;5.534;2022-12-24T14:54:58;11.00;99.90
18297;DHT22;18066;52.106;5.534;2022-12-24T14:57:25;10.90;99.90
18297;DHT22;18066;52.106;5.534;2022-12-24T14:59:54;11.00;99.90
18297;DHT22;18066;52.106;5.534;2022-12-24T15:02:44;11.00;99.90
18297;DHT22;18066;52.106;5.534;2022-12-24T15:05:14;10.90;99.90
18297;DHT22;18066;52.106;5.534;2022-12-24T15:07:49;10.80;99.90
18297;DHT22;18066;52.106;5.534;2022-12-24T15:10:28;10.70;99.90
18297;DHT22;18066;52.106;5.534;2022-12-24T15:12:57;10.70;99.90
18297;DHT22;18066;52.106;5.534;2022-12-24T15:15:27;10.70;99.90
18297;DHT22;18066;52.106;5.534;2022-12-24T15:17:56;10.80;99.90
18297;DHT22;18066;52.106;5.534;2022-12-24T15:20:25;10.80;99.90
18297;DHT22;18066;52.106;5.534;2022-12-24T15:22:54;10.80;99.90
18297;DHT22;18066;52.106;5.534;2022-12-24T15:25:24;10.60;99.90
18297;DHT22;18066;52.106;5.534;2022-12-24T15:27:52;10.70;99.90
18297;DHT22;18066;52.106;5.534;2022-12-24T15:30:21;10.50;99.90
18297;DHT22;18066;52.106;5.534;2022-12-24T15:32:49;10.40;99.90
18297;DHT22;18066;52.106;5.534;2022-12-24T15:35:32;10.30;99.90
18297;DHT22;18066;52.106;5.534;2022-12-24T15:38:00;10.30;99.90
18297;DHT22;18066;52.106;5.534;2022-12-24T15:40:28;10.30;99.90
18297;DHT22;18066;52.106;5.534;2022-12-24T15:42:58;10.20;99.90
18297;DHT22;18066;52.106;5.534;2022-12-24T15:45:26;10.20;99.90
18297;DHT22;18066;52.106;5.534;2022-12-24T15:47:55;10.20;99.90
18297;DHT22;18066;52.106;5.534;2022-12-24T15:50:28;10.20;99.90
18297;DHT22;18066;52.106;5.534;2022-12-24T15:53:00;10.30;99.90
18297;DHT22;18066;52.106;5.534;2022-12-24T15:55:30;10.40;99.90
18297;DHT22;18066;52.106;5.534;2022-12-24T15:57:58;10.40;99.90
18297;DHT22;18066;52.106;5.534;2022-12-24T16:00:27;10.40;99.90
18297;DHT22;18066;52.106;5.534;2022-12-24T16:03:09;10.30;99.90
18297;DHT22;18066;52.106;5.534;2022-12-24T16:05:37;10.40;99.90